Details for Ryanair at LEMG




Go Back


Latest METAR
Local Time

LEMG 250500Z 27012KT 9999 SCT040 17/11 Q1012 NOSIG

25/05/2018, 07:07:10

Description
Results
Ryanair Logo
Number of Pilots based at LEMG
0 Pilots Based here
Number of Ryanair Flights Departed from LEMG
13 Flights Departed
Number of Ryanair Flights Arrived at LEMG
12 Flights Arrived
Number of Ryanair Schedules Departing from LEMG
136 Schedules
Number of Ryanair Schedules Arriving at LEMG
136 Schedules
Number of Ryanair Schedules Departing from LEMG availible today
38 Schedules Today
Number of Ryanair Schedules Arriving at LEMG availible today
39 Schedules Today
Average Landing Rate at LEMG
-286 fpm
Ryanair Average Landing Rate at LEMG
-226 fpm
Total Fuel Purchased at LEMG by Ryanair
72,549.04 kgs / 159,941.61 lbs

Pilots Based at LEMG


Pilot ID
Pilot Name
Pilot Rank
No. of Flights
No. of Flying Hours
There are no pilots assigned to this hub!   Will you be the first?
Content